createdAt,value
2022-08-29T00:03:36.615Z,99773.39
2022-08-29T00:08:40.131Z,99769.14
2022-08-29T00:13:43.542Z,99756.34
2022-08-29T00:18:46.957Z,99743.97
2022-08-29T00:23:50.576Z,99734.65
2022-08-29T00:28:54.089Z,99727.92
2022-08-29T00:33:58.124Z,99718.25
2022-08-29T00:39:01.538Z,99707.21
2022-08-29T00:44:05.309Z,99710.32
2022-08-29T00:49:11.391Z,99706.19
2022-08-29T00:54:15.971Z,99697.56
2022-08-29T00:59:26.044Z,99704.52
2022-08-29T01:04:33.036Z,99707.19
2022-08-29T01:09:38.834Z,99710.69
2022-08-29T01:15:05.259Z,99713.02
2022-08-29T01:20:25.467Z,99715.55
2022-08-29T01:25:35.330Z,99721.96
2022-08-29T01:31:05.273Z,99716.08
2022-08-29T01:36:12.018Z,99714.14
2022-08-29T01:41:18.122Z,99711.14
2022-08-29T01:46:28.818Z,99698.06
2022-08-29T01:51:32.539Z,99708.79
2022-08-29T01:56:40.047Z,99717.20
2022-08-29T02:02:06.358Z,99731.35
2022-08-29T02:07:12.735Z,99733.41
2022-08-29T02:12:16.914Z,99732.91
2022-08-29T02:17:20.323Z,99731.80
2022-08-29T02:22:23.636Z,99738.49
2022-08-29T02:27:26.947Z,99738.27
2022-08-29T02:32:30.667Z,99737.73
2022-08-29T02:37:33.874Z,99743.15
2022-08-29T02:42:37.189Z,99751.90
2022-08-29T02:47:41.173Z,99754.66
2022-08-29T02:52:44.831Z,99748.82
2022-08-29T02:57:48.448Z,99746.87
2022-08-29T03:02:53.167Z,99744.54
2022-08-29T03:07:58.131Z,99748.12
2022-08-29T03:13:01.760Z,99756.11
2022-08-29T03:18:05.890Z,99763.67
2022-08-29T03:23:10.636Z,99762.44
2022-08-29T03:28:14.289Z,99755.02
2022-08-29T03:33:18.384Z,99757.92
2022-08-29T03:38:23.128Z,99764.27
2022-08-29T03:43:26.544Z,99770.86
2022-08-29T03:48:29.852Z,99763.77
2022-08-29T03:53:33.879Z,99764.58
2022-08-29T03:58:38.420Z,99770.30
2022-08-29T04:03:41.731Z,99775.98
2022-08-29T04:08:47.655Z,99774.52
2022-08-29T04:13:53.272Z,99774.77
2022-08-29T04:18:56.578Z,99772.97
2022-08-29T04:23:59.995Z,99771.59
2022-08-29T04:29:04.226Z,99777.36
2022-08-29T04:34:09.687Z,99780.11
2022-08-29T04:39:13.815Z,99779.41
2022-08-29T04:44:17.125Z,99785.27
2022-08-29T04:49:21.972Z,99785.34
2022-08-29T04:54:25.694Z,99784.92
2022-08-29T04:59:29.413Z,99786.22
2022-08-29T05:04:32.624Z,99794.38
2022-08-29T05:09:35.936Z,99795.28
2022-08-29T05:14:40.376Z,99798.41
2022-08-29T05:19:44.978Z,99799.68
2022-08-29T05:24:50.068Z,99807.62
2022-08-29T05:29:54.249Z,99809.84
2022-08-29T05:34:59.348Z,99811.21
2022-08-29T05:40:03.734Z,99806.39
2022-08-29T05:45:08.171Z,99805.60
2022-08-29T05:50:12.250Z,99805.75
2022-08-29T05:55:15.871Z,99806.36
2022-08-29T06:00:19.793Z,99809.40
2022-08-29T06:05:23.104Z,99811.19
2022-08-29T06:10:26.620Z,99812.40
2022-08-29T06:15:30.267Z,99815.73
2022-08-29T06:20:33.959Z,99819.87
2022-08-29T06:25:40.128Z,99822.60
2022-08-29T06:30:44.013Z,99829.54
2022-08-29T06:35:47.475Z,99830.23
2022-08-29T06:40:50.993Z,99832.92
2022-08-29T06:45:54.635Z,99840.73
2022-08-29T06:51:00.684Z,99843.27
2022-08-29T06:56:06.449Z,99844.94
2022-08-29T07:01:17.699Z,99852.96
2022-08-29T07:06:21.783Z,99852.42
2022-08-29T07:11:27.243Z,99854.09
2022-08-29T07:16:32.509Z,99860.05
2022-08-29T07:21:36.627Z,99860.81
2022-08-29T07:26:43.475Z,99869.70
2022-08-29T07:31:47.808Z,99870.08
2022-08-29T07:36:51.267Z,99870.23
2022-08-29T07:41:54.636Z,99873.14
2022-08-29T07:46:59.994Z,99874.98
2022-08-29T07:52:03.761Z,99879.01
2022-08-29T07:57:06.969Z,99880.54
2022-08-29T08:02:10.770Z,99886.79
2022-08-29T08:07:14.618Z,99888.02
2022-08-29T08:12:18.341Z,99887.42
2022-08-29T08:17:22.262Z,99897.77
2022-08-29T08:22:25.675Z,99899.59
2022-08-29T08:27:29.294Z,99901.05
2022-08-29T08:32:33.629Z,99904.08
2022-08-29T08:37:40.527Z,99903.54
2022-08-29T08:42:46.219Z,99905.13
2022-08-29T08:48:13.975Z,99907.21
2022-08-29T08:53:35.206Z,99908.19
2022-08-29T08:58:54.593Z,99907.11
2022-08-29T09:04:17.155Z,99914.13
2022-08-29T09:09:32.860Z,99919.14
2022-08-29T09:15:04.537Z,99921.80
2022-08-29T09:20:15.524Z,99923.92
2022-08-29T09:25:19.347Z,99927.20
2022-08-29T09:30:26.548Z,99931.71
2022-08-29T09:35:37.849Z,99937.13
2022-08-29T09:40:55.902Z,99934.31
2022-08-29T09:46:03.924Z,99939.72
2022-08-29T09:51:15.939Z,99944.69
2022-08-29T09:56:26.734Z,99953.23
2022-08-29T10:01:32.663Z,99954.49
2022-08-29T10:06:46.224Z,99960.11
2022-08-29T10:12:00.790Z,99960.29
2022-08-29T10:17:33.317Z,99963.09
2022-08-29T10:22:42.574Z,99963.59
2022-08-29T10:28:07.094Z,99957.39
2022-08-29T10:33:16.623Z,99953.73
2022-08-29T10:38:47.492Z,99958.77
2022-08-29T10:43:50.804Z,99957.88
2022-08-29T10:49:20.737Z,99955.02
2022-08-29T10:54:53.339Z,99950.83
2022-08-29T11:00:10.652Z,99952.30
2022-08-29T11:05:25.560Z,99952.14
2022-08-29T11:10:33.742Z,99949.59
2022-08-29T11:15:43.135Z,99951.86
2022-08-29T11:20:52.283Z,99960.30
2022-08-29T11:26:02.466Z,99955.33
2022-08-29T11:31:44.535Z,99956.14
2022-08-29T11:36:47.887Z,99960.27
2022-08-29T11:41:58.327Z,99958.66
2022-08-29T11:47:22.464Z,99972.63
2022-08-29T11:52:27.470Z,99971.98
2022-08-29T11:57:31.645Z,99970.19
2022-08-29T12:02:39.561Z,99965.44
2022-08-29T12:08:03.061Z,99963.31
2022-08-29T12:13:42.506Z,99964.88
2022-08-29T12:18:49.065Z,99963.44
2022-08-29T12:23:52.454Z,99963.61
2022-08-29T12:29:00.887Z,99962.83
2022-08-29T12:34:07.216Z,99963.30
2022-08-29T12:39:27.117Z,99965.59
2022-08-29T12:44:48.947Z,99970.42
2022-08-29T12:49:57.409Z,99980.84
2022-08-29T12:55:28.823Z,99975.56
2022-08-29T13:00:34.476Z,99979.30
2022-08-29T13:05:41.528Z,99976.48
2022-08-29T13:11:13.309Z,99974.59
2022-08-29T13:16:30.299Z,99965.47
2022-08-29T13:21:34.368Z,99967.28
2022-08-29T13:26:50.433Z,99964.95
2022-08-29T13:32:32.803Z,99957.13
2022-08-29T13:37:39.903Z,99957.02
2022-08-29T13:42:45.979Z,99959.63
2022-08-29T13:48:02.704Z,99960.17
2022-08-29T13:53:06.013Z,99958.51
2022-08-29T13:58:11.732Z,99953.48
2022-08-29T14:03:18.503Z,99957.84
2022-08-29T14:08:23.758Z,99957.92
2022-08-29T14:13:28.371Z,99963.08
2022-08-29T14:18:32.099Z,99961.55
2022-08-29T14:23:36.528Z,99972.67
2022-08-29T14:28:42.134Z,99974.48
2022-08-29T14:33:51.618Z,99965.19
2022-08-29T14:38:55.371Z,99970.08
2022-08-29T14:43:59.401Z,99987.96
2022-08-29T14:49:03.424Z,99995.05
2022-08-29T14:54:06.737Z,99990.67
2022-08-29T14:59:10.048Z,99991.27
2022-08-29T15:04:13.975Z,99984.54
2022-08-29T15:09:17.487Z,99991.05
2022-08-29T15:14:20.902Z,99985.04
2022-08-29T15:20:15.821Z,99984.23
2022-08-29T15:24:50.353Z,99982.58
2022-08-29T15:29:53.979Z,99972.42
2022-08-29T15:34:57.799Z,99977.27
2022-08-29T15:40:01.237Z,99973.44
2022-08-29T15:45:08.227Z,99964.39
2022-08-29T15:50:11.627Z,99942.64
2022-08-29T15:55:15.006Z,99944.16
2022-08-29T16:00:29.610Z,99966.57
2022-08-29T16:05:36.422Z,99963.27
2022-08-29T16:11:49.754Z,99964.36
2022-08-29T16:16:52.963Z,99956.52
2022-08-29T16:22:00.277Z,99963.08
2022-08-29T16:27:04.707Z,99967.11
2022-08-29T16:32:08.937Z,99965.65
2022-08-29T16:37:12.455Z,99963.70
2022-08-29T16:42:16.173Z,99971.30
2022-08-29T16:47:19.691Z,99966.23
2022-08-29T16:52:23.160Z,99971.23
2022-08-29T16:57:26.925Z,99972.59
2022-08-29T17:02:30.375Z,99972.67
2022-08-29T17:07:33.754Z,99972.71
2022-08-29T17:12:36.960Z,99976.29
2022-08-29T17:17:40.787Z,99979.33
2022-08-29T17:22:44.093Z,99983.09
2022-08-29T17:28:14.321Z,99986.34
2022-08-29T17:33:12.117Z,99982.08
2022-08-29T17:38:16.445Z,99984.42
2022-08-29T17:43:20.070Z,99991.82
2022-08-29T17:48:23.791Z,99989.72
2022-08-29T17:53:27.307Z,99980.94
2022-08-29T17:58:30.823Z,99978.27
2022-08-29T18:03:34.202Z,99973.36
2022-08-29T18:08:38.575Z,99980.69
2022-08-29T18:13:43.422Z,99978.70
2022-08-29T18:18:49.993Z,99978.24
2022-08-29T18:23:54.237Z,99981.89
2022-08-29T18:29:00.620Z,99985.71
2022-08-29T18:34:04.446Z,99988.20
2022-08-29T18:39:09.599Z,99990.17
2022-08-29T18:44:13.009Z,99992.21
2022-08-29T18:49:17.864Z,99995.42
2022-08-29T18:54:25.232Z,99991.99
2022-08-29T18:59:30.623Z,99987.98
2022-08-29T19:04:33.932Z,99988.27
2022-08-29T19:09:37.449Z,99986.21
2022-08-29T19:14:46.153Z,99988.25
2022-08-29T19:20:10.216Z,99999.36
2022-08-29T19:25:14.416Z,99990.70
2022-08-29T19:30:18.748Z,99987.54
2022-08-29T19:35:23.803Z,99995.38
2022-08-29T19:40:28.146Z,99994.00
2022-08-29T19:45:32.107Z,100001.60
2022-08-29T19:50:36.298Z,99996.36
2022-08-29T19:55:40.836Z,99992.47
2022-08-29T20:00:46.067Z,99995.59
2022-08-29T20:05:49.605Z,99997.40
2022-08-29T20:10:53.738Z,99998.52
2022-08-29T20:15:57.098Z,100002.57
2022-08-29T20:21:00.868Z,100005.03
2022-08-29T20:26:04.489Z,100008.84
2022-08-29T20:31:08.359Z,100014.95
2022-08-29T20:36:31.284Z,100019.66
2022-08-29T20:41:34.696Z,100025.36
2022-08-29T20:46:40.738Z,100027.34
2022-08-29T20:51:44.799Z,100030.73
2022-08-29T20:56:48.926Z,100025.43
2022-08-29T21:01:52.937Z,100029.59
2022-08-29T21:07:02.165Z,100036.87
2022-08-29T21:12:07.671Z,100035.88
2022-08-29T21:17:12.413Z,100034.41
2022-08-29T21:22:16.082Z,100036.91
2022-08-29T21:27:20.057Z,100040.91
2022-08-29T21:32:23.675Z,100032.27
2022-08-29T21:37:27.300Z,100031.29
2022-08-29T21:42:30.910Z,100037.82
2022-08-29T21:47:34.223Z,100035.25
2022-08-29T21:52:37.946Z,100033.85
2022-08-29T21:57:53.545Z,100033.86
2022-08-29T22:02:58.246Z,100031.25
2022-08-29T22:08:04.564Z,100031.98
2022-08-29T22:13:09.087Z,100036.07
2022-08-29T22:18:15.185Z,100037.70
2022-08-29T22:23:20.204Z,100040.48
2022-08-29T22:28:23.855Z,100038.09
2022-08-29T22:33:27.161Z,100041.57
2022-08-29T22:38:31.804Z,100044.44
2022-08-29T22:43:35.319Z,100049.54
2022-08-29T22:48:39.729Z,100061.27
2022-08-29T22:54:03.957Z,100066.06
2022-08-29T22:59:07.371Z,100067.56
2022-08-29T23:04:12.167Z,100067.85
2022-08-29T23:09:16.557Z,100063.77
2022-08-29T23:14:20.994Z,100061.63
2022-08-29T23:19:24.402Z,100056.45
2022-08-29T23:24:28.121Z,100058.17
2022-08-29T23:29:33.275Z,100060.16
2022-08-29T23:34:38.840Z,100059.81
2022-08-29T23:39:42.149Z,100065.02
2022-08-29T23:44:48.507Z,100057.89
2022-08-29T23:49:52.258Z,100060.95
2022-08-29T23:54:55.770Z,100067.36
